createdAt,value
2022-10-04T00:00:08.265Z,19.56
2022-10-04T00:01:08.227Z,19.58
2022-10-04T00:02:08.285Z,19.56
2022-10-04T00:03:08.244Z,19.58
2022-10-04T00:04:08.187Z,19.58
2022-10-04T00:05:08.210Z,19.56
2022-10-04T00:06:08.167Z,19.56
2022-10-04T00:07:08.162Z,19.56
2022-10-04T00:08:08.144Z,19.58
2022-10-04T00:09:08.133Z,19.58
2022-10-04T00:10:08.161Z,19.56
2022-10-04T00:11:08.112Z,19.56
2022-10-04T00:12:08.102Z,19.58
2022-10-04T00:13:08.088Z,19.58
2022-10-04T00:14:08.110Z,19.56
2022-10-04T00:15:08.105Z,19.58
2022-10-04T00:16:08.140Z,19.56
2022-10-04T00:17:08.044Z,19.56
2022-10-04T00:18:08.035Z,19.58
2022-10-04T00:19:08.023Z,19.56
2022-10-04T00:20:08.028Z,19.56
2022-10-04T00:21:08.044Z,19.56
2022-10-04T00:22:07.994Z,19.56
2022-10-04T00:23:07.980Z,19.56
2022-10-04T00:24:07.971Z,19.56
2022-10-04T00:25:07.960Z,19.56
2022-10-04T00:26:07.983Z,19.55
2022-10-04T00:27:07.937Z,19.56
2022-10-04T00:28:08.000Z,19.56
2022-10-04T00:29:07.916Z,19.56
2022-10-04T00:30:07.931Z,19.56
2022-10-04T00:31:07.976Z,19.56
2022-10-04T00:32:07.884Z,19.56
2022-10-04T00:33:07.873Z,19.58
2022-10-04T00:34:07.864Z,19.56
2022-10-04T00:35:07.853Z,19.55
2022-10-04T00:36:07.873Z,19.56
2022-10-04T00:37:07.828Z,19.55
2022-10-04T00:38:07.821Z,19.55
2022-10-04T00:39:07.816Z,19.55
2022-10-04T00:40:07.796Z,19.56
2022-10-04T00:41:07.822Z,19.55
2022-10-04T00:42:07.775Z,19.55
2022-10-04T00:43:07.763Z,19.55
2022-10-04T00:44:07.752Z,19.58
2022-10-04T00:45:07.740Z,19.55
2022-10-04T00:46:07.853Z,19.55
2022-10-04T00:47:07.719Z,19.56
2022-10-04T00:48:07.708Z,19.55
2022-10-04T00:49:07.698Z,19.55
2022-10-04T00:50:07.688Z,19.54
2022-10-04T00:51:07.711Z,19.55
2022-10-04T00:52:07.665Z,19.56
2022-10-04T00:53:07.651Z,19.56
2022-10-04T00:54:07.643Z,19.55
2022-10-04T00:55:07.631Z,19.54
2022-10-04T00:56:07.654Z,19.55
2022-10-04T00:57:07.608Z,19.55
2022-10-04T00:58:07.600Z,19.55
2022-10-04T00:59:07.584Z,19.55
2022-10-04T01:00:07.611Z,19.55
2022-10-04T01:01:07.663Z,19.55
2022-10-04T01:02:07.663Z,19.54
2022-10-04T01:03:07.543Z,19.56
2022-10-04T01:04:07.531Z,19.55
2022-10-04T01:05:07.517Z,19.56
2022-10-04T01:06:07.541Z,19.55
2022-10-04T01:07:07.496Z,19.54
2022-10-04T01:08:07.486Z,19.55
2022-10-04T01:09:07.473Z,19.55
2022-10-04T01:10:07.465Z,19.56
2022-10-04T01:11:07.484Z,19.55
2022-10-04T01:12:07.441Z,19.55
2022-10-04T01:13:07.430Z,19.55
2022-10-04T01:14:07.418Z,19.55
2022-10-04T01:15:07.419Z,19.56
2022-10-04T01:16:07.560Z,19.56
2022-10-04T01:17:07.387Z,19.54
2022-10-04T01:18:09.307Z,19.54
2022-10-04T01:19:07.363Z,19.55
2022-10-04T01:20:07.356Z,19.55
2022-10-04T01:21:07.341Z,19.55
2022-10-04T01:22:07.364Z,19.55
2022-10-04T01:23:07.318Z,19.55
2022-10-04T01:24:07.309Z,19.55
2022-10-04T01:25:07.301Z,19.55
2022-10-04T01:26:07.293Z,19.55
2022-10-04T01:27:07.310Z,19.54
2022-10-04T01:28:07.305Z,19.55
2022-10-04T01:29:07.253Z,19.55
2022-10-04T01:30:07.243Z,19.54
2022-10-04T01:31:07.331Z,19.55
2022-10-04T01:32:07.254Z,19.55
2022-10-04T01:33:07.213Z,19.54
2022-10-04T01:34:07.222Z,19.54
2022-10-04T01:35:07.186Z,19.54
2022-10-04T01:36:07.178Z,19.54
2022-10-04T01:37:07.197Z,19.54
2022-10-04T01:38:07.154Z,19.55
2022-10-04T01:39:07.142Z,19.55
2022-10-04T01:40:07.144Z,19.52
2022-10-04T01:41:07.120Z,19.54
2022-10-04T01:42:07.142Z,19.55
2022-10-04T01:43:07.098Z,19.54
2022-10-04T01:44:07.091Z,19.54
2022-10-04T01:45:07.075Z,19.54
2022-10-04T01:46:07.107Z,19.54
2022-10-04T01:47:07.086Z,19.54
2022-10-04T01:48:07.042Z,19.54
2022-10-04T01:49:07.031Z,19.54
2022-10-04T01:50:07.672Z,19.54
2022-10-04T01:51:07.008Z,19.54
2022-10-04T01:52:07.039Z,19.54
2022-10-04T01:53:06.988Z,19.52
2022-10-04T01:54:06.980Z,19.54
2022-10-04T01:55:06.964Z,19.54
2022-10-04T01:56:06.957Z,19.52
2022-10-04T01:57:06.942Z,19.54
2022-10-04T01:58:06.964Z,19.52
2022-10-04T01:59:06.920Z,19.52
2022-10-04T02:00:06.909Z,19.54
2022-10-04T02:01:06.987Z,19.54
2022-10-04T02:02:06.887Z,19.52
2022-10-04T02:03:06.913Z,19.52
2022-10-04T02:04:06.866Z,19.52
2022-10-04T02:05:06.933Z,19.54
2022-10-04T02:06:06.870Z,19.54
2022-10-04T02:07:06.831Z,19.55
2022-10-04T02:08:06.854Z,19.54
2022-10-04T02:09:06.809Z,19.54
2022-10-04T02:10:06.804Z,19.54
2022-10-04T02:11:06.786Z,19.52
2022-10-04T02:12:06.777Z,19.52
2022-10-04T02:13:06.800Z,19.54
2022-10-04T02:14:06.754Z,19.52
2022-10-04T02:15:06.747Z,19.54
2022-10-04T02:16:06.809Z,19.54
2022-10-04T02:17:06.721Z,19.52
2022-10-04T02:18:06.744Z,19.54
2022-10-04T02:19:06.698Z,19.52
2022-10-04T02:20:06.687Z,19.54
2022-10-04T02:21:06.677Z,19.52
2022-10-04T02:22:06.692Z,19.54
2022-10-04T02:23:06.654Z,19.52
2022-10-04T02:24:06.680Z,19.52
2022-10-04T02:25:06.633Z,19.52
2022-10-04T02:26:06.623Z,19.54
2022-10-04T02:27:06.611Z,19.51
2022-10-04T02:28:06.656Z,19.52
2022-10-04T02:29:06.621Z,19.52
2022-10-04T02:30:06.583Z,19.52
2022-10-04T02:31:06.601Z,19.54
2022-10-04T02:32:06.559Z,19.52
2022-10-04T02:33:06.546Z,19.52
2022-10-04T02:34:06.570Z,19.52
2022-10-04T02:35:06.524Z,19.51
2022-10-04T02:36:06.516Z,19.52
2022-10-04T02:37:06.502Z,19.52
2022-10-04T02:38:06.516Z,19.52
2022-10-04T02:39:06.511Z,19.52
2022-10-04T02:40:06.468Z,19.52
2022-10-04T02:41:06.458Z,19.51
2022-10-04T02:42:06.446Z,19.52
2022-10-04T02:43:06.435Z,19.52
2022-10-04T02:44:06.462Z,19.52
2022-10-04T02:45:06.413Z,19.52
2022-10-04T02:46:06.474Z,19.52
2022-10-04T02:47:06.391Z,19.51
2022-10-04T02:48:06.383Z,19.52
2022-10-04T02:49:06.402Z,19.51
2022-10-04T02:50:06.363Z,19.52
2022-10-04T02:51:06.350Z,19.51
2022-10-04T02:52:06.339Z,19.51
2022-10-04T02:53:06.326Z,19.51
2022-10-04T02:54:06.370Z,19.52
2022-10-04T02:55:06.303Z,19.51
2022-10-04T02:56:06.295Z,19.51
2022-10-04T02:57:06.282Z,19.51
2022-10-04T02:58:06.275Z,19.51
2022-10-04T02:59:06.306Z,19.51
2022-10-04T03:00:06.253Z,19.52
2022-10-04T03:01:06.303Z,19.51
2022-10-04T03:02:06.278Z,19.54
2022-10-04T03:03:06.215Z,19.51
2022-10-04T03:04:06.246Z,19.52
2022-10-04T03:05:06.196Z,19.52
2022-10-04T03:06:06.183Z,19.51
2022-10-04T03:07:06.169Z,19.51
2022-10-04T03:08:06.161Z,19.51
2022-10-04T03:09:06.147Z,19.51
2022-10-04T03:10:06.195Z,19.49
2022-10-04T03:11:06.125Z,19.52
2022-10-04T03:12:06.120Z,19.51
2022-10-04T03:13:06.103Z,19.52
2022-10-04T03:14:06.093Z,19.52
2022-10-04T03:15:06.113Z,19.52
2022-10-04T03:16:06.136Z,19.52
2022-10-04T03:17:06.060Z,19.52
2022-10-04T03:18:06.048Z,19.51
2022-10-04T03:19:06.036Z,19.52
2022-10-04T03:20:06.065Z,19.51
2022-10-04T03:21:06.014Z,19.51
2022-10-04T03:22:06.007Z,19.51
2022-10-04T03:23:05.992Z,19.51
2022-10-04T03:24:05.982Z,19.51
2022-10-04T03:25:06.006Z,19.52
2022-10-04T03:26:05.983Z,19.51
2022-10-04T03:27:05.949Z,19.51
2022-10-04T03:28:06.007Z,19.51
2022-10-04T03:29:05.926Z,19.52
2022-10-04T03:30:05.948Z,19.51
2022-10-04T03:31:05.999Z,19.51
2022-10-04T03:32:05.969Z,19.51
2022-10-04T03:33:05.882Z,19.51
2022-10-04T03:34:05.871Z,19.51
2022-10-04T03:35:05.893Z,19.49
2022-10-04T03:36:05.848Z,19.51
2022-10-04T03:37:05.845Z,19.51
2022-10-04T03:38:05.826Z,19.51
2022-10-04T03:39:05.816Z,19.51
2022-10-04T03:40:05.836Z,19.49
2022-10-04T03:41:05.793Z,19.51
2022-10-04T03:42:05.808Z,19.51
2022-10-04T03:43:05.773Z,19.51
2022-10-04T03:44:05.761Z,19.52
2022-10-04T03:45:05.788Z,19.51
2022-10-04T03:46:05.777Z,19.49
2022-10-04T03:47:05.751Z,19.51
2022-10-04T03:48:05.716Z,19.52
2022-10-04T03:49:05.702Z,19.51
2022-10-04T03:50:05.694Z,19.51
2022-10-04T03:51:05.683Z,19.49
2022-10-04T03:52:05.700Z,19.49
2022-10-04T03:53:05.659Z,19.51
2022-10-04T03:54:05.648Z,19.51
2022-10-04T03:55:05.638Z,19.51
2022-10-04T03:56:05.628Z,19.49
2022-10-04T03:57:05.644Z,19.51
2022-10-04T03:58:05.627Z,19.49
2022-10-04T03:59:05.592Z,19.49
2022-10-04T04:00:05.582Z,19.51
2022-10-04T04:01:05.641Z,19.51
2022-10-04T04:02:05.614Z,19.51
2022-10-04T04:03:05.547Z,19.51
2022-10-04T04:04:05.536Z,19.49
2022-10-04T04:05:05.525Z,19.49
2022-10-04T04:06:05.516Z,19.51
2022-10-04T04:07:05.530Z,19.49
2022-10-04T04:08:05.507Z,19.51
2022-10-04T04:09:05.480Z,19.49
2022-10-04T04:10:05.469Z,19.49
2022-10-04T04:11:05.461Z,19.51
2022-10-04T04:12:05.474Z,19.49
2022-10-04T04:13:05.437Z,19.49
2022-10-04T04:14:05.453Z,19.49
2022-10-04T04:15:05.415Z,19.51
2022-10-04T04:16:05.451Z,19.51
2022-10-04T04:17:05.419Z,19.49
2022-10-04T04:18:05.383Z,19.48
2022-10-04T04:19:05.372Z,19.49
2022-10-04T04:20:07.581Z,19.49
2022-10-04T04:21:05.349Z,19.51
2022-10-04T04:22:05.381Z,19.51
2022-10-04T04:23:05.330Z,19.49
2022-10-04T04:24:05.320Z,19.49
2022-10-04T04:25:05.306Z,19.49
2022-10-04T04:26:05.298Z,19.49
2022-10-04T04:27:05.446Z,19.49
2022-10-04T04:28:05.415Z,19.51
2022-10-04T04:29:05.267Z,19.48
2022-10-04T04:30:05.274Z,19.49
2022-10-04T04:31:05.245Z,19.52
2022-10-04T04:32:05.280Z,19.48
2022-10-04T04:33:05.244Z,19.49
2022-10-04T04:34:05.210Z,19.49
2022-10-04T04:35:05.195Z,19.49
2022-10-04T04:36:05.195Z,19.49
2022-10-04T04:37:05.177Z,19.49
2022-10-04T04:38:05.194Z,19.49
2022-10-04T04:39:05.150Z,19.49
2022-10-04T04:40:05.145Z,19.49
2022-10-04T04:41:05.128Z,19.49
2022-10-04T04:42:05.121Z,19.48
2022-10-04T04:43:05.133Z,19.49
2022-10-04T04:44:05.110Z,19.49
2022-10-04T04:45:05.085Z,19.48
2022-10-04T04:46:25.979Z,19.49
2022-10-04T04:47:06.062Z,19.48
2022-10-04T04:48:05.083Z,19.51
2022-10-04T04:49:05.042Z,19.51
2022-10-04T04:50:05.034Z,19.48
2022-10-04T04:51:05.018Z,19.48
2022-10-04T04:52:05.009Z,19.48
2022-10-04T04:53:05.029Z,19.48
2022-10-04T04:54:05.088Z,19.49
2022-10-04T04:55:04.977Z,19.48
2022-10-04T04:56:05.373Z,19.49
2022-10-04T04:57:04.953Z,19.49
2022-10-04T04:58:04.972Z,19.49
2022-10-04T04:59:04.937Z,19.49
2022-10-04T05:00:04.924Z,19.49
2022-10-04T05:01:05.003Z,19.49
2022-10-04T05:02:04.964Z,19.49
2022-10-04T05:03:04.915Z,19.49
2022-10-04T05:04:04.882Z,19.48
2022-10-04T05:05:04.898Z,19.49
2022-10-04T05:06:05.159Z,19.49
2022-10-04T05:07:04.845Z,19.49
2022-10-04T05:08:04.882Z,19.48
2022-10-04T05:09:04.824Z,19.49
2022-10-04T05:10:04.815Z,19.49
2022-10-04T05:11:04.808Z,19.49
2022-10-04T05:12:04.794Z,19.49
2022-10-04T05:13:04.782Z,19.48
2022-10-04T05:14:04.800Z,19.48
2022-10-04T05:15:04.761Z,19.48
2022-10-04T05:16:04.801Z,19.48
2022-10-04T05:17:04.738Z,19.48
2022-10-04T05:18:04.755Z,19.49
2022-10-04T05:19:04.744Z,19.48
2022-10-04T05:20:04.712Z,19.49
2022-10-04T05:21:04.695Z,19.48
2022-10-04T05:22:04.688Z,19.49
2022-10-04T05:23:04.676Z,19.47
2022-10-04T05:24:04.693Z,19.48
2022-10-04T05:25:04.653Z,19.49
2022-10-04T05:26:04.661Z,19.49
2022-10-04T05:27:04.635Z,19.49
2022-10-04T05:28:04.680Z,19.48
2022-10-04T05:29:04.655Z,19.49
2022-10-04T05:30:04.601Z,19.49
2022-10-04T05:31:04.590Z,19.48
2022-10-04T05:32:04.651Z,19.48
2022-10-04T05:33:04.624Z,19.48
2022-10-04T05:34:04.607Z,19.48
2022-10-04T05:35:04.587Z,19.49
2022-10-04T05:36:04.540Z,19.48
2022-10-04T05:37:04.526Z,19.47
2022-10-04T05:38:04.519Z,19.48
2022-10-04T05:39:04.505Z,19.48
2022-10-04T05:40:04.497Z,19.48
2022-10-04T05:41:04.510Z,19.49
2022-10-04T05:42:04.477Z,19.48
2022-10-04T05:43:04.462Z,19.48
2022-10-04T05:44:04.455Z,19.47
2022-10-04T05:45:04.441Z,19.49
2022-10-04T05:46:04.534Z,19.49
2022-10-04T05:47:04.419Z,19.49
2022-10-04T05:48:04.410Z,19.48
2022-10-04T05:49:04.397Z,19.48
2022-10-04T05:50:04.411Z,19.48
2022-10-04T05:51:04.402Z,19.49
2022-10-04T05:52:04.366Z,19.48
2022-10-04T05:53:04.356Z,19.47
2022-10-04T05:54:04.345Z,19.48
2022-10-04T05:55:04.335Z,19.48
2022-10-04T05:56:04.364Z,19.48
2022-10-04T05:57:04.326Z,19.48
2022-10-04T05:58:04.306Z,19.47
2022-10-04T05:59:04.292Z,19.48
2022-10-04T06:00:04.729Z,19.48
2022-10-04T06:01:04.391Z,19.48
2022-10-04T06:02:04.333Z,19.48
2022-10-04T06:03:04.248Z,19.47
2022-10-04T06:04:04.241Z,19.48
2022-10-04T06:05:04.225Z,19.48
2022-10-04T06:06:04.239Z,19.47
2022-10-04T06:07:04.253Z,19.48
2022-10-04T06:08:04.194Z,19.48
2022-10-04T06:09:04.185Z,19.47
2022-10-04T06:10:04.191Z,19.48
2022-10-04T06:11:04.164Z,19.48
2022-10-04T06:12:04.154Z,19.48
2022-10-04T06:13:04.171Z,19.47
2022-10-04T06:14:04.132Z,19.47
2022-10-04T06:15:04.124Z,19.48
2022-10-04T06:16:04.111Z,19.48
2022-10-04T06:17:04.211Z,19.47
2022-10-04T06:18:04.129Z,19.47
2022-10-04T06:19:04.080Z,19.47
2022-10-04T06:20:04.074Z,19.47
2022-10-04T06:21:04.060Z,19.44
2022-10-04T06:22:04.070Z,19.44
2022-10-04T06:23:04.067Z,19.44
2022-10-04T06:24:04.025Z,19.41
2022-10-04T06:25:04.015Z,19.41
2022-10-04T06:26:04.003Z,19.41
2022-10-04T06:27:03.993Z,19.41
2022-10-04T06:28:04.087Z,19.41
2022-10-04T06:29:03.971Z,19.41
2022-10-04T06:30:03.960Z,19.41
2022-10-04T06:31:04.028Z,19.41
2022-10-04T06:32:03.938Z,19.44
2022-10-04T06:33:03.957Z,19.44
2022-10-04T06:34:03.921Z,19.41
2022-10-04T06:35:03.910Z,19.41
2022-10-04T06:36:03.896Z,19.41
2022-10-04T06:37:03.887Z,19.44
2022-10-04T06:38:03.924Z,19.41
2022-10-04T06:39:04.514Z,19.44
2022-10-04T06:40:03.853Z,19.44
2022-10-04T06:41:03.846Z,19.41
2022-10-04T06:42:03.833Z,19.44
2022-10-04T06:43:03.861Z,19.44
2022-10-04T06:44:03.812Z,19.44
2022-10-04T06:45:03.803Z,19.44
2022-10-04T06:46:03.890Z,19.45
2022-10-04T06:47:03.781Z,19.44
2022-10-04T06:48:03.767Z,19.44
2022-10-04T06:49:03.784Z,19.44
2022-10-04T06:50:03.746Z,19.44
2022-10-04T06:51:03.738Z,19.45
2022-10-04T06:52:03.725Z,19.44
2022-10-04T06:53:03.718Z,19.45
2022-10-04T06:54:03.769Z,19.44
2022-10-04T06:55:03.694Z,19.45
2022-10-04T06:56:03.685Z,19.47
2022-10-04T06:57:03.672Z,19.45
2022-10-04T06:58:03.663Z,19.45
2022-10-04T06:59:03.652Z,19.45
2022-10-04T07:00:03.669Z,19.45
2022-10-04T07:01:03.708Z,19.47
2022-10-04T07:02:03.685Z,19.47
2022-10-04T07:03:03.611Z,19.48
2022-10-04T07:04:03.600Z,19.45
2022-10-04T07:05:08.658Z,19.47
2022-10-04T07:06:04.577Z,19.45
2022-10-04T07:07:03.568Z,19.47
2022-10-04T07:08:03.554Z,19.45
2022-10-04T07:09:03.543Z,19.47
2022-10-04T07:10:03.581Z,19.45
2022-10-04T07:11:03.525Z,19.47
2022-10-04T07:12:03.518Z,19.47
2022-10-04T07:13:03.502Z,19.48
2022-10-04T07:14:03.492Z,19.48
2022-10-04T07:15:03.518Z,19.47
2022-10-04T07:16:03.594Z,19.48
2022-10-04T07:17:03.461Z,19.49
2022-10-04T07:18:03.446Z,19.49
2022-10-04T07:19:03.434Z,19.48
2022-10-04T07:20:03.423Z,19.47
2022-10-04T07:21:03.445Z,19.49
2022-10-04T07:22:03.402Z,19.48
2022-10-04T07:23:03.396Z,19.48
2022-10-04T07:24:03.384Z,19.49
2022-10-04T07:25:03.375Z,19.49
2022-10-04T07:26:03.487Z,19.49
2022-10-04T07:27:03.354Z,19.48
2022-10-04T07:28:03.392Z,19.49
2022-10-04T07:29:03.330Z,19.49
2022-10-04T07:30:03.318Z,19.49
2022-10-04T07:31:03.392Z,19.49
2022-10-04T07:32:03.297Z,19.49
2022-10-04T07:33:03.288Z,19.49
2022-10-04T07:34:03.284Z,19.49
2022-10-04T07:35:03.275Z,19.48
2022-10-04T07:36:03.283Z,19.49
2022-10-04T07:37:03.247Z,19.49
2022-10-04T07:38:03.239Z,19.49
2022-10-04T07:39:03.225Z,19.49
2022-10-04T07:40:03.216Z,19.49
2022-10-04T07:41:03.245Z,19.49
2022-10-04T07:42:03.261Z,19.49
2022-10-04T07:43:03.182Z,19.51
2022-10-04T07:44:03.171Z,19.51
2022-10-04T07:45:03.168Z,19.51
2022-10-04T07:46:03.191Z,19.51
2022-10-04T07:47:03.166Z,19.49
2022-10-04T07:48:03.145Z,19.51
2022-10-04T07:49:03.118Z,19.52
2022-10-04T07:50:03.110Z,19.51
2022-10-04T07:51:03.098Z,19.52
2022-10-04T07:52:03.112Z,19.52
2022-10-04T07:53:08.554Z,19.52
2022-10-04T07:54:04.065Z,19.52
2022-10-04T07:55:03.053Z,19.52
2022-10-04T07:56:03.045Z,19.54
2022-10-04T07:57:03.056Z,19.52
2022-10-04T07:58:03.046Z,19.54
2022-10-04T07:59:03.012Z,19.54
2022-10-04T08:00:03.006Z,19.52
2022-10-04T08:01:02.988Z,19.54
2022-10-04T08:02:03.103Z,19.54
2022-10-04T08:03:03.017Z,19.52
2022-10-04T08:04:02.959Z,19.55
2022-10-04T08:05:02.955Z,19.55
2022-10-04T08:06:02.940Z,19.55
2022-10-04T08:07:02.950Z,19.56
2022-10-04T08:08:02.916Z,19.56
2022-10-04T08:09:02.910Z,19.56
2022-10-04T08:10:02.902Z,19.59
2022-10-04T08:11:02.890Z,19.59
2022-10-04T08:12:02.919Z,19.59
2022-10-04T08:13:02.861Z,19.62
2022-10-04T08:14:02.873Z,19.62
2022-10-04T08:15:02.843Z,19.63
2022-10-04T08:16:02.899Z,19.63
2022-10-04T08:17:02.846Z,19.64
2022-10-04T08:18:02.811Z,19.63
2022-10-04T08:19:02.796Z,19.64
2022-10-04T08:20:02.795Z,19.64
2022-10-04T08:21:02.775Z,19.66
2022-10-04T08:22:02.809Z,19.66
2022-10-04T08:23:02.754Z,19.67
2022-10-04T08:24:02.747Z,19.66
2022-10-04T08:25:02.734Z,19.67
2022-10-04T08:26:02.726Z,19.67
2022-10-04T08:27:02.714Z,19.67
2022-10-04T08:28:02.805Z,19.70
2022-10-04T08:29:02.690Z,19.67
2022-10-04T08:30:02.710Z,19.69
2022-10-04T08:31:02.732Z,19.69
2022-10-04T08:32:05.212Z,19.70
2022-10-04T08:33:02.671Z,19.70
2022-10-04T08:34:02.637Z,19.69
2022-10-04T08:35:02.627Z,19.69
2022-10-04T08:36:02.619Z,19.69
2022-10-04T08:37:02.604Z,19.69
2022-10-04T08:38:02.631Z,19.70
2022-10-04T08:39:02.608Z,19.69
2022-10-04T08:40:02.573Z,19.67
2022-10-04T08:41:02.561Z,19.67
2022-10-04T08:42:02.559Z,19.67
2022-10-04T08:43:02.549Z,19.66
2022-10-04T08:44:02.602Z,19.66
2022-10-04T08:45:02.523Z,19.67
2022-10-04T08:46:02.700Z,19.66
2022-10-04T08:47:02.500Z,19.66
2022-10-04T08:48:02.486Z,19.64
2022-10-04T08:49:02.476Z,19.66
2022-10-04T08:50:02.506Z,19.64
2022-10-04T08:51:02.452Z,19.66
2022-10-04T08:52:02.444Z,19.64
2022-10-04T08:53:02.432Z,19.64
2022-10-04T08:54:02.423Z,19.63
2022-10-04T08:55:02.413Z,19.66
2022-10-04T08:56:02.424Z,19.64
2022-10-04T08:57:02.386Z,19.66
2022-10-04T08:58:02.375Z,19.67
2022-10-04T08:59:02.366Z,19.67
2022-10-04T09:00:02.355Z,19.67
2022-10-04T09:01:02.434Z,19.69
2022-10-04T09:02:02.384Z,19.69
2022-10-04T09:03:02.435Z,19.70
2022-10-04T09:04:02.313Z,19.70
2022-10-04T09:05:02.305Z,19.71
2022-10-04T09:06:02.288Z,19.73
2022-10-04T09:07:02.307Z,19.73
2022-10-04T09:08:02.268Z,19.71
2022-10-04T09:09:02.259Z,19.74
2022-10-04T09:10:02.265Z,19.76
2022-10-04T09:11:02.257Z,19.74
2022-10-04T09:12:02.268Z,19.74
2022-10-04T09:13:02.219Z,19.76
2022-10-04T09:14:02.210Z,19.77
2022-10-04T09:15:02.192Z,19.76
2022-10-04T09:16:02.273Z,19.76
2022-10-04T09:17:02.193Z,19.76
2022-10-04T09:18:02.460Z,19.76
2022-10-04T09:19:02.146Z,19.77
2022-10-04T09:20:26.231Z,19.76
2022-10-04T09:21:03.129Z,19.77
2022-10-04T09:22:02.154Z,19.77
2022-10-04T09:23:06.235Z,19.77
2022-10-04T09:24:02.098Z,19.77
2022-10-04T09:25:02.080Z,19.77
2022-10-04T09:26:02.080Z,19.79
2022-10-04T09:27:02.062Z,19.79
2022-10-04T09:28:02.155Z,19.81
2022-10-04T09:29:04.953Z,19.82
2022-10-04T09:30:02.029Z,19.82
2022-10-04T09:31:02.114Z,19.82
2022-10-04T09:32:02.004Z,19.85
2022-10-04T09:33:02.019Z,19.84
2022-10-04T09:34:02.141Z,19.84
2022-10-04T09:35:01.971Z,19.85
2022-10-04T09:36:01.960Z,19.85
2022-10-04T09:37:01.949Z,19.85
2022-10-04T09:38:01.966Z,19.85
2022-10-04T09:39:28.290Z,19.86
2022-10-04T09:40:02.917Z,19.86
2022-10-04T09:41:01.913Z,19.85
2022-10-04T09:42:01.893Z,19.86
2022-10-04T09:43:01.921Z,19.88
2022-10-04T09:44:01.873Z,19.88
2022-10-04T09:45:01.861Z,19.86
2022-10-04T09:46:01.890Z,19.88
2022-10-04T09:47:01.905Z,19.88
2022-10-04T09:48:01.826Z,19.89
2022-10-04T09:49:01.840Z,19.89
2022-10-04T09:50:01.831Z,19.89
2022-10-04T09:51:01.792Z,19.89
2022-10-04T09:52:01.789Z,19.89
2022-10-04T09:53:01.771Z,19.89
2022-10-04T09:54:01.801Z,19.89
2022-10-04T09:55:01.752Z,19.89
2022-10-04T09:56:01.741Z,19.91
2022-10-04T09:57:01.725Z,19.91
2022-10-04T09:58:01.719Z,19.91
2022-10-04T09:59:01.704Z,19.91
2022-10-04T10:00:01.723Z,19.91
2022-10-04T10:01:01.680Z,19.91
2022-10-04T10:02:01.751Z,19.91
2022-10-04T10:03:01.816Z,19.92
2022-10-04T10:04:01.663Z,19.92
2022-10-04T10:05:01.664Z,19.92
2022-10-04T10:06:01.651Z,19.91
2022-10-04T10:07:01.618Z,19.91
2022-10-04T10:08:01.621Z,19.89
2022-10-04T10:09:01.596Z,19.89
2022-10-04T10:10:01.611Z,19.89
2022-10-04T10:11:01.571Z,19.89
2022-10-04T10:12:01.561Z,19.89
2022-10-04T10:13:01.553Z,19.89
2022-10-04T10:14:01.540Z,19.91
2022-10-04T10:15:01.571Z,19.91
2022-10-04T10:16:01.649Z,19.91
2022-10-04T10:17:01.508Z,19.92
2022-10-04T10:18:01.497Z,19.91
2022-10-04T10:19:01.485Z,19.92
2022-10-04T10:20:01.475Z,19.91
2022-10-04T10:21:01.487Z,19.94
2022-10-04T10:22:01.478Z,19.92
2022-10-04T10:23:01.439Z,19.92
2022-10-04T10:24:01.435Z,19.91
2022-10-04T10:25:01.417Z,19.94
2022-10-04T10:26:01.449Z,19.94
2022-10-04T10:27:01.398Z,19.94
2022-10-04T10:28:01.434Z,19.92
2022-10-04T10:29:01.376Z,19.92
2022-10-04T10:30:01.362Z,19.94
2022-10-04T10:31:01.402Z,19.95
2022-10-04T10:32:01.365Z,19.94
2022-10-04T10:33:01.335Z,19.95
2022-10-04T10:34:01.323Z,19.95
2022-10-04T10:35:01.306Z,19.94
2022-10-04T10:36:01.299Z,19.96
2022-10-04T10:37:01.313Z,19.95
2022-10-04T10:38:04.604Z,19.95
2022-10-04T10:39:01.265Z,19.96
2022-10-04T10:40:01.253Z,19.96
2022-10-04T10:41:01.241Z,19.95
2022-10-04T10:42:01.261Z,19.99
2022-10-04T10:43:01.227Z,19.95
2022-10-04T10:44:01.207Z,19.95
2022-10-04T10:45:01.199Z,19.96
2022-10-04T10:46:01.310Z,19.95
2022-10-04T10:47:01.329Z,19.94
2022-10-04T10:48:01.166Z,19.94
2022-10-04T10:49:01.155Z,19.95
2022-10-04T10:50:01.143Z,19.95
2022-10-04T10:51:01.131Z,19.94
2022-10-04T10:52:01.120Z,19.94
2022-10-04T10:53:01.142Z,19.92
2022-10-04T10:54:01.123Z,19.92
2022-10-04T10:55:01.096Z,19.92
2022-10-04T10:56:01.078Z,19.91
2022-10-04T10:57:01.074Z,19.89
2022-10-04T10:58:01.098Z,19.91
2022-10-04T10:59:01.043Z,19.89
2022-10-04T11:00:01.036Z,19.89
2022-10-04T11:01:01.020Z,19.89
2022-10-04T11:02:01.185Z,19.89
2022-10-04T11:03:12.768Z,19.91
2022-10-04T11:04:02.109Z,19.91
2022-10-04T11:05:00.975Z,19.89
2022-10-04T11:06:00.967Z,19.89
2022-10-04T11:07:00.953Z,19.92
2022-10-04T11:08:00.950Z,19.89
2022-10-04T11:09:00.960Z,19.88
2022-10-04T11:10:00.945Z,19.88
2022-10-04T11:11:00.910Z,19.88
2022-10-04T11:12:00.900Z,19.88
2022-10-04T11:13:00.890Z,19.88
2022-10-04T11:14:00.906Z,19.86
2022-10-04T11:15:00.866Z,19.88
2022-10-04T11:16:00.885Z,19.88
2022-10-04T11:17:00.845Z,19.85
2022-10-04T11:18:00.835Z,19.86
2022-10-04T11:19:00.849Z,19.86
2022-10-04T11:20:00.815Z,19.86
2022-10-04T11:21:00.815Z,19.86
2022-10-04T11:22:00.788Z,19.85
2022-10-04T11:23:00.778Z,19.85
2022-10-04T11:24:00.810Z,19.85
2022-10-04T11:25:00.754Z,19.85
2022-10-04T11:26:00.768Z,19.85
2022-10-04T11:27:00.732Z,19.85
2022-10-04T11:28:00.748Z,19.85
2022-10-04T11:29:00.710Z,19.84
2022-10-04T11:30:00.726Z,19.85
2022-10-04T11:31:00.766Z,19.84
2022-10-04T11:32:00.687Z,19.85
2022-10-04T11:33:00.665Z,19.84
2022-10-04T11:34:00.654Z,19.84
2022-10-04T11:35:00.674Z,19.84
2022-10-04T11:36:00.633Z,19.84
2022-10-04T11:37:00.622Z,19.84
2022-10-04T11:38:00.618Z,19.85
2022-10-04T11:39:00.601Z,19.85
2022-10-04T11:40:00.625Z,19.84
2022-10-04T11:41:00.577Z,19.84
2022-10-04T11:42:00.595Z,19.84
2022-10-04T11:43:00.556Z,19.82
2022-10-04T11:44:00.546Z,19.82
2022-10-04T11:45:00.562Z,19.84
2022-10-04T11:46:00.522Z,19.82
2022-10-04T11:47:00.594Z,19.84
2022-10-04T11:48:00.500Z,19.82
2022-10-04T11:49:00.489Z,19.82
2022-10-04T11:50:00.520Z,19.82
2022-10-04T11:51:00.465Z,19.81
2022-10-04T11:52:02.601Z,19.81
2022-10-04T11:53:00.443Z,19.82
2022-10-04T11:54:00.435Z,19.81
2022-10-04T11:55:00.423Z,19.82
2022-10-04T11:56:00.437Z,19.81
2022-10-04T11:57:00.397Z,19.82
2022-10-04T11:58:00.408Z,19.79
2022-10-04T11:59:00.376Z,19.81
2022-10-04T12:00:00.364Z,19.82
2022-10-04T12:01:00.383Z,19.81
2022-10-04T12:02:00.343Z,19.81
2022-10-04T12:03:00.335Z,19.81
2022-10-04T12:04:00.540Z,19.81
2022-10-04T12:05:00.437Z,19.82
2022-10-04T12:06:00.340Z,19.81
2022-10-04T12:07:00.293Z,19.81
2022-10-04T12:08:00.276Z,19.82
2022-10-04T12:09:00.266Z,19.82
2022-10-04T12:10:01.322Z,19.81
2022-10-04T12:11:00.244Z,19.81
2022-10-04T12:12:00.262Z,19.81
2022-10-04T12:13:00.222Z,19.81
2022-10-04T12:14:00.235Z,19.81
2022-10-04T12:15:00.199Z,19.81
2022-10-04T12:16:00.290Z,19.82
2022-10-04T12:17:00.205Z,19.81
2022-10-04T12:18:00.166Z,19.79
2022-10-04T12:19:00.160Z,19.79
2022-10-04T12:20:00.167Z,19.81
2022-10-04T12:21:00.132Z,19.82
2022-10-04T12:22:00.162Z,19.81
2022-10-04T12:23:00.115Z,19.79
2022-10-04T12:24:00.119Z,19.79
2022-10-04T12:25:00.101Z,19.81
2022-10-04T12:26:00.083Z,19.81
2022-10-04T12:27:00.074Z,19.79
2022-10-04T12:28:00.203Z,19.79
2022-10-04T12:29:00.048Z,19.81
2022-10-04T12:30:00.107Z,19.79
2022-10-04T12:31:00.029Z,19.81
2022-10-04T12:32:00.090Z,19.77
2022-10-04T12:33:00.000Z,19.79
2022-10-04T12:34:00.017Z,19.79
2022-10-04T12:34:59.978Z,19.81
2022-10-04T12:35:59.973Z,19.79
2022-10-04T12:36:59.955Z,19.77
2022-10-04T12:37:59.946Z,19.79
2022-10-04T12:38:59.958Z,19.79
2022-10-04T12:39:59.963Z,19.79
2022-10-04T12:40:59.911Z,19.77
2022-10-04T12:41:59.900Z,19.79
2022-10-04T12:42:59.887Z,19.79
2022-10-04T12:43:59.916Z,19.77
2022-10-04T12:44:59.865Z,19.79
2022-10-04T12:45:59.974Z,19.79
2022-10-04T12:46:59.844Z,19.77
2022-10-04T12:47:59.837Z,19.77
2022-10-04T12:48:59.820Z,19.79
2022-10-04T12:49:59.844Z,19.77
2022-10-04T12:50:59.799Z,19.79
2022-10-04T12:51:59.788Z,19.79